Time;durP1;ratioP1;P1;durP2;ratioP2;P2;SDS_P1;SDS_P2;PMS_P1;PMS_P2;Temp;Humidity;BMP_temperature;BMP_pressure;BME280_temperature;BME280_humidity;BME280_pressure;Samples;Min_cycle;Max_cycle;Signal;HPM_P1;HPM_P2
2022/04/20 00:00:20;;;;;;;28.23;12.23;;;;;;;10.94;64.24;101579.81;5051052;28;20149;-29
2022/04/20 00:02:46;;;;;;;22.77;10.63;;;;;;;10.93;64.00;101583.53;5050922;28;20025;-29
2022/04/20 00:05:12;;;;;;;22.50;11.43;;;;;;;10.91;64.37;101579.31;5049733;28;20021;-27
2022/04/20 00:07:37;;;;;;;24.77;11.75;;;;;;;10.91;64.10;101577.47;5031466;28;20510;-28
2022/04/20 00:10:04;;;;;;;27.65;10.80;;;;;;;10.85;64.08;101585.34;5038206;28;20546;-28
2022/04/20 00:12:29;;;;;;;26.27;10.77;;;;;;;10.82;64.26;101580.31;5050384;28;20037;-28
2022/04/20 00:14:55;;;;;;;23.05;10.85;;;;;;;10.80;64.31;101576.97;5050390;28;20498;-27
2022/04/20 00:17:20;;;;;;;25.70;11.63;;;;;;;10.72;64.84;101575.09;5049402;28;20084;-28
2022/04/20 00:19:45;;;;;;;23.10;11.35;;;;;;;10.72;64.65;101572.41;5050157;28;20121;-28
2022/04/20 00:22:11;;;;;;;22.85;10.30;;;;;;;10.68;64.84;101573.72;5050258;28;20468;-29
2022/04/20 00:24:36;;;;;;;25.95;10.77;;;;;;;10.72;64.54;101573.22;5049686;28;20089;-28
2022/04/20 00:27:02;;;;;;;22.67;10.80;;;;;;;10.69;64.69;101570.88;5050193;28;20028;-28
2022/04/20 00:29:27;;;;;;;19.58;10.40;;;;;;;10.63;64.88;101571.50;5050186;28;20040;-28
2022/04/20 00:31:52;;;;;;;25.80;10.23;;;;;;;10.63;64.90;101581.44;5049162;28;20091;-29
2022/04/20 00:34:18;;;;;;;20.98;9.73;;;;;;;10.58;65.19;101581.94;5049881;28;20080;-29
2022/04/20 00:36:43;;;;;;;24.15;10.13;;;;;;;10.54;65.04;101588.66;5049057;28;20048;-28
2022/04/20 00:39:09;;;;;;;23.08;9.77;;;;;;;10.53;65.31;101589.66;5050116;28;20040;-29
2022/04/20 00:41:34;;;;;;;19.35;9.68;;;;;;;10.48;65.38;101581.25;5049594;28;20039;-28
2022/04/20 00:44:00;;;;;;;26.48;10.73;;;;;;;10.47;65.53;101590.31;5049786;28;20498;-27
2022/04/20 00:46:26;;;;;;;24.23;11.32;;;;;;;10.44;65.74;101587.94;5049701;28;20024;-29
2022/04/20 00:48:52;;;;;;;25.02;11.23;;;;;;;10.41;65.69;101593.66;5049187;28;20051;-28
2022/04/20 00:51:18;;;;;;;22.90;10.35;;;;;;;10.38;65.91;101607.44;5045663;28;20029;-29
2022/04/20 00:53:43;;;;;;;22.73;9.98;;;;;;;10.31;65.83;101599.16;5043843;28;20048;-28
2022/04/20 00:56:08;;;;;;;21.98;9.68;;;;;;;10.26;66.12;101599.59;5049663;28;20040;-28
2022/04/20 00:58:35;;;;;;;19.02;10.38;;;;;;;10.26;65.97;101598.78;5048542;28;20036;-28
2022/04/20 01:01:00;;;;;;;25.08;10.25;;;;;;;10.25;66.05;101600.63;5048044;28;20044;-27
2022/04/20 01:03:26;;;;;;;22.05;10.27;;;;;;;10.21;66.18;101601.09;5048167;28;20029;-26
2022/04/20 01:05:51;;;;;;;21.80;8.80;;;;;;;10.18;66.34;101593.34;5049143;28;20417;-28
2022/04/20 01:08:17;;;;;;;17.42;9.68;;;;;;;10.15;66.88;101605.28;5049859;28;20116;-27
2022/04/20 01:10:42;;;;;;;22.10;9.18;;;;;;;10.13;66.46;101591.16;5048344;28;20043;-28
2022/04/20 01:13:08;;;;;;;26.55;9.82;;;;;;;10.12;66.89;101592.16;5047812;28;20033;-28
2022/04/20 01:15:34;;;;;;;21.90;9.02;;;;;;;10.10;66.70;101592.31;5047689;28;20120;-28
2022/04/20 01:18:00;;;;;;;18.88;9.18;;;;;;;10.07;66.94;101597.16;5050037;28;20025;-29
2022/04/20 01:20:25;;;;;;;19.15;9.93;;;;;;;10.05;66.82;101599.16;5049268;28;20025;-30
2022/04/20 01:22:50;;;;;;;19.85;9.10;;;;;;;10.02;67.00;101594.13;5044321;28;20035;-28
2022/04/20 01:25:16;;;;;;;19.23;10.13;;;;;;;9.94;66.91;101594.06;5042814;28;20115;-28
2022/04/20 01:27:41;;;;;;;18.60;9.35;;;;;;;9.93;67.13;101589.72;5049449;28;20033;-28
2022/04/20 01:30:07;;;;;;;20.83;10.43;;;;;;;9.91;66.77;101597.94;5049649;28;20039;-28
2022/04/20 01:32:33;;;;;;;19.67;9.50;;;;;;;9.92;67.22;101596.06;5047458;28;20548;-27
2022/04/20 01:34:59;;;;;;;20.60;9.23;;;;;;;9.87;66.91;101597.41;5030907;28;20041;-27
2022/04/20 01:37:24;;;;;;;24.45;10.25;;;;;;;9.88;67.60;101599.09;5049528;28;20025;-27
2022/04/20 01:39:49;;;;;;;19.23;9.77;;;;;;;9.83;67.36;101590.66;5049935;28;20029;-26
2022/04/20 01:42:15;;;;;;;19.80;9.38;;;;;;;9.82;67.20;101590.81;5047589;28;20029;-27
2022/04/20 01:44:40;;;;;;;18.65;8.63;;;;;;;9.81;67.33;101586.44;5047535;28;20032;-27
2022/04/20 01:47:06;;;;;;;24.60;9.52;;;;;;;9.81;67.11;101586.44;5049513;28;20040;-28
2022/04/20 01:49:31;;;;;;;15.85;8.57;;;;;;;9.74;67.22;101586.25;5048875;28;20194;-27
2022/04/20 01:51:56;;;;;;;22.00;9.32;;;;;;;9.73;67.74;101573.78;5049224;28;20037;-27
2022/04/20 01:54:22;;;;;;;22.52;9.05;;;;;;;9.70;67.74;101589.41;5048370;28;20029;-27
2022/04/20 01:56:48;;;;;;;17.35;9.30;;;;;;;9.67;67.71;101585.19;5047715;28;20032;-29
2022/04/20 01:59:14;;;;;;;17.65;9.23;;;;;;;9.63;67.73;101587.31;5049460;28;20123;-29
2022/04/20 02:04:24;;;;;;;17.25;8.35;;;;;;;9.58;67.82;101586.94;5051880;28;20051;-28
2022/04/20 02:06:49;;;;;;;17.17;9.07;;;;;;;9.56;67.95;101593.50;5052522;28;20196;-28
2022/04/20 02:09:15;;;;;;;18.45;9.20;;;;;;;9.52;67.77;101592.13;5052938;28;20106;-28
2022/04/20 02:11:40;;;;;;;19.60;9.13;;;;;;;9.47;67.81;101589.91;5051249;28;20095;-27
2022/04/20 02:14:05;;;;;;;20.25;9.63;;;;;;;9.48;68.08;101588.03;5051317;28;20041;-28
2022/04/20 02:16:31;;;;;;;18.92;8.43;;;;;;;9.47;67.79;101586.38;5050774;28;20029;-28
2022/04/20 02:18:56;;;;;;;25.60;9.15;;;;;;;9.41;67.71;101585.16;5052641;28;20395;-27
2022/04/20 02:21:22;;;;;;;20.27;8.70;;;;;;;9.44;68.04;101590.22;5052617;28;20120;-28
2022/04/20 02:23:47;;;;;;;19.20;8.52;;;;;;;9.40;67.66;101586.13;5052155;28;20559;-28
2022/04/20 02:26:12;;;;;;;17.20;9.10;;;;;;;9.36;67.75;101585.63;5051034;28;20533;-28
2022/04/20 02:28:38;;;;;;;17.92;9.32;;;;;;;9.34;68.23;101592.97;5052878;28;20037;-27
2022/04/20 02:31:03;;;;;;;15.63;8.15;;;;;;;9.33;68.17;101582.41;5052419;28;20044;-27
2022/04/20 02:33:29;;;;;;;22.13;9.40;;;;;;;9.26;67.93;101584.84;5048538;28;20025;-27
2022/04/20 02:35:54;;;;;;;16.42;8.93;;;;;;;9.23;68.20;101585.16;5051173;28;20067;-28
2022/04/20 02:38:20;;;;;;;19.15;8.55;;;;;;;9.21;68.26;101588.00;5052151;28;20021;-28
2022/04/20 02:40:46;;;;;;;17.65;8.75;;;;;;;9.18;68.19;101579.41;5053067;28;20044;-28
2022/04/20 02:43:12;;;;;;;17.58;8.52;;;;;;;9.16;68.18;101576.03;5052651;28;20029;-28
2022/04/20 02:45:37;;;;;;;17.35;8.57;;;;;;;9.16;67.93;101576.03;5067887;28;20044;-28
2022/04/20 02:48:03;;;;;;;17.00;8.93;;;;;;;9.14;68.06;101589.63;5052375;28;20070;-27
2022/04/20 02:50:29;;;;;;;17.98;8.65;;;;;;;9.10;68.25;101590.94;5052412;28;20029;-28
2022/04/20 02:52:55;;;;;;;17.80;8.23;;;;;;;9.08;68.26;101590.22;5051841;28;20021;-27
2022/04/20 02:55:20;;;;;;;17.15;7.93;;;;;;;9.11;68.23;101589.09;5050652;28;20028;-27
2022/04/20 02:57:46;;;;;;;18.52;8.65;;;;;;;9.07;67.90;101585.03;5051145;28;20392;-28
2022/04/20 03:00:12;;;;;;;14.02;7.45;;;;;;;9.04;68.16;101586.19;5051750;28;20112;-28
2022/04/20 03:02:37;;;;;;;17.83;8.00;;;;;;;9.04;68.29;101588.88;5051658;28;20027;-26
2022/04/20 03:05:03;;;;;;;14.73;7.40;;;;;;;9.06;68.36;101594.06;5052234;28;20428;-27
2022/04/20 03:07:28;;;;;;;16.88;8.60;;;;;;;9.04;68.21;101588.88;5051589;28;20105;-27
2022/04/20 03:09:54;;;;;;;16.23;8.10;;;;;;;9.02;67.84;101599.75;5051844;28;20031;-27
2022/04/20 03:12:19;;;;;;;21.00;8.63;;;;;;;9.01;67.80;101594.56;5049760;28;20082;-28
2022/04/20 03:14:44;;;;;;;13.93;7.10;;;;;;;8.99;67.98;101594.69;5050974;28;20040;-27
2022/04/20 03:17:10;;;;;;;19.73;9.45;;;;;;;8.92;68.08;101601.66;5051929;28;20052;-27
2022/04/20 03:19:36;;;;;;;15.02;7.80;;;;;;;8.95;68.03;101597.81;5051891;28;20411;-27
2022/04/20 03:22:01;;;;;;;22.75;7.25;;;;;;;8.86;68.39;101591.53;5051426;28;20025;-28
2022/04/20 03:24:27;;;;;;;15.07;7.57;;;;;;;8.83;68.36;101591.84;5051288;28;20403;-30
2022/04/20 03:26:52;;;;;;;18.50;8.43;;;;;;;8.83;68.01;101597.22;5051726;28;20029;-28
2022/04/20 03:29:17;;;;;;;19.17;8.25;;;;;;;8.82;68.14;101600.91;5050667;28;20033;-29
2022/04/20 03:31:43;;;;;;;13.88;7.80;;;;;;;8.80;68.14;101602.91;5050747;28;20407;-29
2022/04/20 03:34:08;;;;;;;14.82;6.72;;;;;;;8.77;67.93;101604.03;5051014;28;20087;-29
2022/04/20 03:36:34;;;;;;;15.80;7.50;;;;;;;8.72;68.19;101602.81;5051789;28;20044;-29
2022/04/20 03:39:00;;;;;;;14.35;7.70;;;;;;;8.69;68.46;101612.00;5049581;28;20024;-28
2022/04/20 03:41:25;;;;;;;19.13;8.35;;;;;;;8.69;67.79;101611.13;5050388;28;20033;-29
2022/04/20 03:43:51;;;;;;;13.23;7.65;;;;;;;8.63;68.36;101607.22;5051202;28;20124;-29
2022/04/20 03:46:16;;;;;;;15.65;8.10;;;;;;;8.52;68.25;101610.97;5051641;28;20119;-28
2022/04/20 03:48:42;;;;;;;13.95;7.97;;;;;;;8.55;68.48;101604.44;5051086;28;20032;-29
2022/04/20 03:51:08;;;;;;;16.33;7.55;;;;;;;8.52;68.46;101600.22;5051525;28;20033;-29
2022/04/20 03:53:33;;;;;;;13.90;7.60;;;;;;;8.47;68.37;101615.94;5050941;28;20029;-29
2022/04/20 03:55:58;;;;;;;14.65;7.30;;;;;;;8.43;68.38;101614.56;5050916;28;20061;-28
2022/04/20 03:58:24;;;;;;;14.57;6.78;;;;;;;8.41;68.17;101616.53;5049580;28;20060;-29
2022/04/20 04:00:51;;;;;;;17.75;7.28;;;;;;;8.43;68.10;101605.66;5051278;28;20017;-28
2022/04/20 04:03:17;;;;;;;16.88;8.05;;;;;;;8.42;68.34;101609.31;5050683;28;20074;-27
2022/04/20 04:05:43;;;;;;;14.35;7.13;;;;;;;8.38;68.21;101603.41;5051001;28;20029;-29
2022/04/20 04:08:09;;;;;;;14.02;8.07;;;;;;;8.36;67.97;101613.41;5049168;28;20177;-29
2022/04/20 04:10:34;;;;;;;15.45;7.60;;;;;;;8.31;68.53;101610.34;5049766;28;20025;-29
2022/04/20 04:13:00;;;;;;;18.30;7.75;;;;;;;8.26;68.51;101615.28;5050691;28;20040;-29
2022/04/20 04:15:25;;;;;;;12.10;7.15;;;;;;;8.22;68.39;101612.06;5043613;28;20472;-29
2022/04/20 04:17:54;;;;;;;10.70;6.75;;;;;;;8.20;68.24;101610.53;5050754;28;20029;-28
2022/04/20 04:20:23;;;;;;;13.95;7.30;;;;;;;8.18;68.52;101612.50;5049133;28;20051;-29
2022/04/20 04:22:50;;;;;;;14.25;7.50;;;;;;;8.13;68.29;101607.59;5050365;28;20033;-29
2022/04/20 04:25:15;;;;;;;16.38;7.85;;;;;;;8.09;68.90;101609.72;5049690;28;20116;-28
2022/04/20 04:27:41;;;;;;;18.08;6.53;;;;;;;8.08;68.34;101607.19;5048513;28;20750;-28
2022/04/20 04:30:07;;;;;;;13.95;7.20;;;;;;;8.06;68.27;101614.53;5062358;28;20033;-29
2022/04/20 04:32:33;;;;;;;13.38;6.95;;;;;;;8.03;68.33;101621.03;5046718;28;20457;-28
2022/04/20 04:35:00;;;;;;;15.90;6.97;;;;;;;7.98;68.33;101620.63;5047310;28;20044;-28
2022/04/20 04:37:26;;;;;;;14.13;6.90;;;;;;;7.98;68.14;101623.31;5030007;28;20039;-28
2022/04/20 04:39:51;;;;;;;13.20;7.07;;;;;;;7.96;68.25;101627.13;5047273;28;20322;-28
2022/04/20 04:42:17;;;;;;;14.95;7.85;;;;;;;7.98;67.58;101622.44;5047576;28;20434;-27
2022/04/20 04:44:42;;;;;;;12.32;6.60;;;;;;;7.97;67.62;101632.31;5043431;28;20079;-30
2022/04/20 04:49:51;;;;;;;10.98;6.68;;;;;;;7.96;67.44;101635.19;5044435;28;20218;-29
2022/04/20 04:52:17;;;;;;;10.90;6.90;;;;;;;8.01;66.89;101632.91;5033157;28;20159;-29
2022/04/20 04:54:42;;;;;;;12.77;7.00;;;;;;;8.02;67.01;101634.59;5036019;28;20021;-28
2022/04/20 04:57:09;;;;;;;15.02;7.20;;;;;;;8.02;67.03;101637.25;5045865;28;20147;-28
2022/04/20 04:59:41;;;;;;;12.52;6.45;;;;;;;8.04;66.97;101646.84;5045912;28;20052;-28
2022/04/20 05:02:07;;;;;;;11.98;6.35;;;;;;;8.04;66.68;101646.84;5046596;28;20036;-28
2022/04/20 05:04:35;;;;;;;13.10;6.50;;;;;;;8.05;66.86;101648.53;5043076;28;20464;-28
2022/04/20 05:07:00;;;;;;;9.70;5.68;;;;;;;8.05;66.42;101651.22;5047333;28;20113;-27
2022/04/20 05:09:25;;;;;;;11.60;7.00;;;;;;;8.04;66.48;101660.25;5047491;28;20108;-30
2022/04/20 05:11:51;;;;;;;10.27;6.05;;;;;;;8.07;66.13;101649.22;5041240;28;20075;-28
2022/04/20 05:14:16;;;;;;;13.45;5.70;;;;;;;8.11;65.96;101655.16;5042423;28;20051;-28
2022/04/20 05:16:42;;;;;;;14.38;6.93;;;;;;;8.16;65.72;101655.53;5028974;28;20029;-29
2022/04/20 05:19:08;;;;;;;10.77;6.25;;;;;;;8.17;65.22;101654.56;5036966;28;20036;-26
2022/04/20 05:21:33;;;;;;;11.27;5.97;;;;;;;8.24;65.07;101649.44;5039515;28;20163;-28
2022/04/20 05:23:59;;;;;;;9.30;5.90;;;;;;;8.32;64.71;101652.25;5027376;28;20026;-28
2022/04/20 05:26:25;;;;;;;10.82;6.22;;;;;;;8.33;64.42;101657.47;5031312;28;20112;-28
2022/04/20 05:28:53;;;;;;;10.07;5.95;;;;;;;8.36;64.32;101661.69;5013510;28;20081;-27
2022/04/20 05:31:19;;;;;;;;;;;;;;;8.43;63.71;101660.16;5045395;28;20025;-29
2022/04/20 05:33:44;;;;;;;12.90;6.13;;;;;;;8.51;63.45;101667.47;5045539;28;19973;-27
2022/04/20 05:36:10;;;;;;;13.90;5.70;;;;;;;8.67;63.11;101669.50;5034640;28;20033;-27
2022/04/20 05:44:03;;;;;;;9.10;5.70;;;;;;;9.94;59.23;101672.06;5051211;28;20064;-29
2022/04/20 05:46:29;;;;;;;9.45;5.93;;;;;;;10.67;57.14;101667.09;5051703;28;20404;-26
2022/04/20 05:48:54;;;;;;;9.88;4.88;;;;;;;11.46;54.01;101669.47;5050019;28;20017;-26
2022/04/20 05:51:19;;;;;;;12.27;6.30;;;;;;;11.91;52.74;101663.59;5045569;28;20036;-29
2022/04/20 05:53:45;;;;;;;16.42;5.80;;;;;;;12.41;51.16;101667.88;5048483;28;20102;-28
2022/04/20 05:56:10;;;;;;;8.50;5.43;;;;;;;13.02;49.05;101667.25;5046420;28;20049;-26
2022/04/20 05:58:35;;;;;;;9.50;5.07;;;;;;;13.35;48.66;101674.16;5031552;28;20031;-28
2022/04/20 06:01:01;;;;;;;23.63;5.40;;;;;;;13.69;47.41;101675.59;5049573;28;20286;-28
2022/04/20 06:03:26;;;;;;;10.93;5.18;;;;;;;14.44;46.06;101679.25;5050886;28;20104;-28
2022/04/20 06:05:51;;;;;;;10.90;5.47;;;;;;;15.25;43.84;101673.81;5044158;28;20076;-31
2022/04/20 06:08:17;;;;;;;10.60;4.90;;;;;;;15.57;42.70;101676.00;5039209;28;20025;-27
2022/04/20 06:10:46;;;;;;;9.32;4.88;;;;;;;15.61;42.10;101683.75;5049668;28;20021;-27
2022/04/20 06:13:11;;;;;;;11.52;5.45;;;;;;;15.71;42.56;101687.00;5048590;28;20033;-28
2022/04/20 06:15:37;;;;;;;12.18;5.35;;;;;;;16.01;41.36;101680.38;5049295;28;20017;-28
2022/04/20 06:18:02;;;;;;;10.95;5.30;;;;;;;16.13;41.25;101688.81;5048976;28;20065;-28
2022/04/20 06:20:27;;;;;;;11.63;5.28;;;;;;;16.23;41.07;101680.31;5049885;28;20108;-29
2022/04/20 06:22:53;;;;;;;7.75;5.10;;;;;;;16.52;39.69;101691.97;5050624;28;20060;-30
2022/04/20 06:25:18;;;;;;;12.20;5.50;;;;;;;16.40;40.03;101680.81;5046808;28;20021;-27
2022/04/20 06:27:43;;;;;;;8.00;5.07;;;;;;;16.15;40.50;101685.91;5047289;28;20025;-29
2022/04/20 06:30:09;;;;;;;11.07;5.60;;;;;;;16.33;40.34;101685.41;5034785;28;20041;-27
2022/04/20 06:32:36;;;;;;;11.23;5.25;;;;;;;16.66;40.66;101680.97;5048016;28;20106;-29
2022/04/20 06:35:01;;;;;;;9.15;5.55;;;;;;;16.98;38.98;101694.09;5049094;28;20481;-29
2022/04/20 06:37:27;;;;;;;16.52;5.45;;;;;;;17.02;38.61;101687.22;5038709;28;20071;-29
2022/04/20 06:39:54;;;;;;;15.10;5.57;;;;;;;16.94;39.13;101684.69;5050134;28;20111;-28
2022/04/20 06:42:19;;;;;;;10.45;5.18;;;;;;;17.47;37.73;101691.09;5049537;28;20359;-28
2022/04/20 06:44:45;;;;;;;14.02;5.60;;;;;;;18.10;37.66;101690.72;5048952;28;20510;-27
2022/04/20 06:47:10;;;;;;;8.30;5.25;;;;;;;18.77;36.02;101693.31;5031930;28;20475;-28
2022/04/20 06:49:35;;;;;;;11.85;5.80;;;;;;;19.08;34.88;101685.19;5051253;28;20024;-28
2022/04/20 07:00:16;;;;;;;13.48;5.20;;;;;;;18.50;35.72;101693.38;5050820;28;20044;-28
2022/04/20 07:02:42;;;;;;;22.35;6.88;;;;;;;18.70;35.24;101692.50;5050594;28;20037;-29
2022/04/20 07:05:09;;;;;;;10.60;5.82;;;;;;;19.38;33.88;101695.53;5047309;28;20622;-27
2022/04/20 07:07:34;;;;;;;8.83;6.03;;;;;;;19.38;33.68;101695.53;5049396;28;20044;-29
2022/04/20 07:10:00;;;;;;;12.65;6.22;;;;;;;19.59;33.32;101696.22;5048618;28;20330;-29
2022/04/20 07:12:25;;;;;;;7.55;5.32;;;;;;;19.77;33.37;101700.97;5049010;28;20048;-28
2022/04/20 07:14:50;;;;;;;12.00;5.72;;;;;;;19.86;32.84;101700.47;5048819;28;20040;-27
2022/04/20 07:17:16;;;;;;;12.52;5.82;;;;;;;20.11;32.99;101705.06;5050541;28;20041;-28
2022/04/20 07:19:42;;;;;;;9.68;5.68;;;;;;;20.57;31.96;101699.19;5050449;28;20146;-29
2022/04/20 07:22:07;;;;;;;12.07;5.60;;;;;;;20.70;32.04;101700.09;5047573;28;20115;-28
2022/04/20 07:24:32;;;;;;;13.68;6.03;;;;;;;20.74;31.33;101704.84;5043118;28;20041;-27
2022/04/20 07:26:58;;;;;;;11.27;6.82;;;;;;;20.62;31.76;101701.22;5042482;28;20033;-29
2022/04/20 07:29:23;;;;;;;12.00;5.68;;;;;;;20.54;32.40;101705.09;5047729;28;20032;-27
2022/04/20 07:31:48;;;;;;;16.38;6.05;;;;;;;21.13;31.30;101710.91;5047079;28;20102;-29
2022/04/20 07:34:13;;;;;;;12.68;5.93;;;;;;;21.94;29.91;101703.19;5047028;28;20132;-28
2022/04/20 07:36:39;;;;;;;9.82;5.60;;;;;;;21.94;29.17;101708.66;5047611;28;20029;-28
2022/04/20 07:39:04;;;;;;;9.82;5.85;;;;;;;21.87;29.95;101706.03;5044932;28;20024;-29
2022/04/20 07:41:29;;;;;;;9.43;5.68;;;;;;;22.06;29.74;101705.91;5050561;28;20120;-28
2022/04/20 07:43:55;;;;;;;11.40;5.80;;;;;;;22.42;28.58;101702.13;5050648;28;20032;-29
2022/04/20 07:46:20;;;;;;;12.07;6.10;;;;;;;22.16;29.75;101705.34;5051186;28;20430;-28
2022/04/20 07:48:46;;;;;;;11.45;6.07;;;;;;;23.23;28.30;101710.44;5050949;28;20056;-28
2022/04/20 07:51:13;;;;;;;12.52;5.75;;;;;;;23.64;26.99;101705.66;5051638;28;20041;-30
2022/04/20 07:53:38;;;;;;;17.85;5.78;;;;;;;23.51;27.44;101705.97;5050170;28;20036;-29
2022/04/20 07:56:04;;;;;;;11.80;5.68;;;;;;;23.65;27.00;101710.09;5051530;28;20025;-29
2022/04/20 07:58:30;;;;;;;10.48;5.70;;;;;;;23.81;26.34;101712.03;5051291;28;20374;-29
2022/04/20 08:00:57;;;;;;;14.02;5.88;;;;;;;23.74;26.25;101713.28;5050177;28;20039;-28
2022/04/20 08:03:22;;;;;;;9.40;5.53;;;;;;;24.49;25.73;101718.34;5051172;28;20021;-29
2022/04/20 08:05:52;;;;;;;13.55;6.55;;;;;;;23.99;25.81;101707.38;5051316;28;20021;-29
2022/04/20 08:08:17;;;;;;;12.63;6.88;;;;;;;24.69;26.07;101712.25;5051327;28;20031;-28
2022/04/20 08:10:43;;;;;;;11.40;6.05;;;;;;;24.85;26.15;101716.03;5049133;28;20020;-29
2022/04/20 08:15:54;;;;;;;10.82;5.95;;;;;;;24.84;25.26;101719.06;5031294;28;20118;-29
2022/04/20 08:18:20;;;;;;;11.43;6.40;;;;;;;24.73;25.41;101716.19;5049398;28;20045;-30
2022/04/20 08:20:45;;;;;;;13.95;6.78;;;;;;;24.60;26.61;101724.00;5034937;28;20072;-30
2022/04/20 08:23:11;;;;;;;12.38;6.63;;;;;;;24.95;25.40;101720.84;5048699;28;20309;-29
2022/04/20 08:25:36;;;;;;;13.07;5.70;;;;;;;25.14;24.58;101719.41;5049576;28;20021;-28
2022/04/20 08:28:01;;;;;;;12.57;6.10;;;;;;;24.24;26.56;101726.19;5044087;28;20040;-29
2022/04/20 08:30:28;;;;;;;9.68;6.10;;;;;;;25.03;25.42;101716.81;5048824;28;20064;-30
2022/04/20 08:32:53;;;;;;;14.55;6.93;;;;;;;25.17;24.90;101724.47;5047535;28;20048;-30
2022/04/20 08:35:19;;;;;;;10.27;6.40;;;;;;;25.26;25.57;101724.81;5047640;28;20415;-30
2022/04/20 08:37:45;;;;;;;11.82;6.22;;;;;;;25.04;25.43;101730.34;5048761;28;20128;-30
2022/04/20 08:40:12;;;;;;;10.18;6.00;;;;;;;24.95;26.00;101726.34;5049063;28;20044;-30
2022/04/20 08:42:39;;;;;;;12.80;5.53;;;;;;;24.85;26.02;101724.31;5047960;28;20032;-30
2022/04/20 08:45:04;;;;;;;;;;;;;;;25.10;25.34;101729.28;5049680;28;20025;-31
2022/04/20 08:47:37;;;;;;;13.27;5.77;;;;;;;24.58;24.87;101726.97;5050770;28;19909;-30
2022/04/20 08:50:05;;;;;;;14.23;5.95;;;;;;;24.51;24.98;101723.56;5050426;28;20112;-30
2022/04/20 08:52:39;;;;;;;12.68;6.13;;;;;;;24.30;24.92;101720.53;5050509;28;20025;-29
2022/04/20 08:55:16;;;;;;;10.30;6.15;;;;;;;24.43;24.84;101718.47;5049118;28;20393;-28
2022/04/20 08:57:44;;;;;;;13.65;5.85;;;;;;;24.56;24.42;101718.16;5050184;28;20568;-29
2022/04/20 09:00:11;;;;;;;10.15;6.03;;;;;;;24.54;24.16;101714.84;5032749;28;20036;-28
2022/04/20 09:02:37;;;;;;;11.68;6.47;;;;;;;24.26;24.84;101713.03;5049153;28;20104;-28
2022/04/20 09:05:03;;;;;;;16.40;5.75;;;;;;;24.08;24.80;101719.63;5048700;28;20136;-30
2022/04/20 09:07:32;;;;;;;10.25;5.38;;;;;;;23.65;25.11;101721.09;5050229;28;20090;-30
2022/04/20 09:09:58;;;;;;;13.05;5.85;;;;;;;23.27;25.42;101710.75;5049359;28;20035;-29
2022/04/20 09:12:25;;;;;;;13.50;5.30;;;;;;;23.16;26.67;101720.72;5048722;28;20476;-28
2022/04/20 09:14:52;;;;;;;10.63;5.55;;;;;;;23.44;26.19;101717.97;5050505;28;20365;-29
2022/04/20 09:17:20;;;;;;;14.23;5.70;;;;;;;23.51;26.34;101723.28;5050438;28;20633;-30
2022/04/20 09:19:47;;;;;;;8.32;4.88;;;;;;;23.43;26.44;101704.47;5049999;28;20476;-27
2022/04/20 09:22:22;;;;;;;8.52;4.70;;;;;;;23.25;25.55;101705.53;5049905;28;20486;-29
2022/04/20 09:24:58;;;;;;;9.05;4.75;;;;;;;23.38;25.86;101696.97;5050024;28;20119;-30
2022/04/20 09:27:26;;;;;;;8.50;4.50;;;;;;;23.68;26.43;101706.84;5050004;28;20063;-30
2022/04/20 09:29:55;;;;;;;10.13;4.68;;;;;;;24.23;25.36;101706.09;5032073;28;20210;-29
2022/04/20 09:32:37;;;;;;;13.07;4.30;;;;;;;24.63;23.91;101713.28;5050080;28;20025;-28
2022/04/20 09:35:07;;;;;;;10.75;4.28;;;;;;;24.30;23.80;101709.53;5048225;28;20052;-30
2022/04/20 09:37:34;;;;;;;8.52;3.83;;;;;;;23.92;24.27;101707.53;5049875;28;20094;-28
2022/04/20 09:40:00;;;;;;;7.32;3.83;;;;;;;24.11;23.25;101708.13;5048377;28;20298;-29
2022/04/20 09:42:25;;;;;;;8.55;4.30;;;;;;;23.70;23.69;101707.44;5049899;28;20024;-29
2022/04/20 09:44:59;;;;;;;9.15;3.92;;;;;;;23.37;24.08;101703.53;5048436;28;20518;-32
2022/04/20 09:50:12;;;;;;;7.93;4.35;;;;;;;23.98;24.39;101700.22;5050024;28;20090;-29
2022/04/20 09:52:43;;;;;;;7.85;4.18;;;;;;;23.66;24.73;101687.84;5049534;28;20094;-28
2022/04/20 09:55:12;;;;;;;10.75;4.32;;;;;;;23.55;24.79;101698.91;5048169;28;20088;-29
2022/04/20 09:57:38;;;;;;;9.85;4.53;;;;;;;24.11;24.66;101683.34;5048271;28;20017;-29
2022/04/20 10:00:09;;;;;;;9.63;4.78;;;;;;;24.14;24.20;101685.59;5049452;28;20045;-29
2022/04/20 10:02:45;;;;;;;9.63;4.22;;;;;;;24.58;24.34;101693.97;5049700;28;20041;-30
2022/04/20 10:05:10;;;;;;;7.70;3.85;;;;;;;24.69;24.29;101700.44;5049548;28;20025;-30
2022/04/20 10:07:35;;;;;;;7.53;4.20;;;;;;;24.59;24.23;101690.09;5048047;28;20025;-29
2022/04/20 10:10:01;;;;;;;10.75;4.30;;;;;;;24.84;23.90;101686.84;5049366;28;20021;-30
2022/04/20 10:12:29;;;;;;;10.48;5.03;;;;;;;24.11;24.16;101680.59;5048175;28;20112;-30
2022/04/20 10:17:45;;;;;;;11.82;4.20;;;;;;;24.61;23.97;101676.94;5048695;28;20044;-29
2022/04/20 10:20:14;;;;;;;11.30;4.70;;;;;;;24.80;24.37;101677.44;5049431;28;20017;-29
2022/04/20 10:22:40;;;;;;;11.77;3.78;;;;;;;24.65;23.06;101680.84;5051645;28;20082;-30
2022/04/20 10:25:06;;;;;;;7.35;3.83;;;;;;;25.35;22.84;101670.06;5053191;28;20037;-29
2022/04/20 10:28:06;;;;;;;11.60;4.47;;;;;;;25.44;23.11;101673.19;5053284;28;20053;-28
2022/04/20 10:30:50;;;;;;;17.77;5.00;;;;;;;25.96;22.98;101676.16;5051679;28;20108;-31
2022/04/20 10:33:16;;;;;;;8.90;4.70;;;;;;;26.11;22.63;101672.63;5052993;28;20033;-27
2022/04/20 10:36:02;;;;;;;6.93;4.38;;;;;;;25.93;22.59;101676.66;5052173;28;20049;-28
2022/04/20 10:38:32;;;;;;;10.55;4.57;;;;;;;25.88;22.79;101662.81;5052901;28;20023;-29
2022/04/20 10:41:17;;;;;;;10.07;4.88;;;;;;;25.26;23.10;101666.13;5052970;28;20081;-28
2022/04/20 10:43:43;;;;;;;10.55;5.22;;;;;;;25.10;22.88;101663.19;5053148;28;20387;-29
2022/04/20 10:46:11;;;;;;;8.30;4.75;;;;;;;24.98;22.67;101657.81;5052738;28;20021;-30
2022/04/20 10:49:16;;;;;;;13.13;4.32;;;;;;;24.45;22.36;101659.38;5052844;28;20031;-29
2022/04/20 10:51:42;;;;;;;8.05;4.38;;;;;;;24.43;23.75;101652.44;5021813;28;20040;-29
2022/04/20 10:54:27;;;;;;;8.63;4.43;;;;;;;24.26;24.59;101647.00;5052990;28;20024;-29
2022/04/20 10:57:07;;;;;;;11.65;5.68;;;;;;;24.58;23.97;101638.09;5052402;28;20388;-28
2022/04/20 10:59:33;;;;;;;11.00;4.90;;;;;;;24.31;23.42;101636.06;5052331;28;20033;-30
2022/04/20 11:02:05;;;;;;;10.38;4.43;;;;;;;23.68;23.85;101643.63;5052429;28;20074;-30
2022/04/20 11:04:37;;;;;;;12.90;4.40;;;;;;;23.89;23.90;101636.56;5052310;28;20029;-29
2022/04/20 11:07:03;;;;;;;11.88;5.28;;;;;;;23.81;24.45;101628.75;5051916;28;20036;-29
2022/04/20 11:09:44;;;;;;;11.38;4.60;;;;;;;23.52;24.54;101639.81;5052168;28;20422;-29
2022/04/20 11:21:11;;;;;;;12.27;5.22;;;;;;;23.59;25.34;101625.88;5052154;28;20431;-29
2022/04/20 11:23:59;;;;;;;9.82;4.97;;;;;;;23.61;26.31;101612.72;5051850;28;20063;-29
2022/04/20 11:26:41;;;;;;;16.13;4.18;;;;;;;23.79;24.62;101626.25;5051859;28;20032;-29
2022/04/20 11:29:22;;;;;;;9.30;4.05;;;;;;;23.49;24.12;101615.56;5052251;28;20105;-29
2022/04/20 11:31:48;;;;;;;13.63;4.25;;;;;;;23.79;24.33;101619.91;5051674;28;20025;-29
2022/04/20 11:34:15;;;;;;;10.25;4.70;;;;;;;23.52;24.81;101614.25;5050384;28;20060;-30
2022/04/20 11:36:43;;;;;;;;;;;;;;;22.88;25.30;101615.28;5052341;28;20136;-29
2022/04/20 11:39:12;;;;;;;6.22;4.05;;;;;;;23.17;25.21;101607.03;5050673;28;19939;-30
2022/04/20 11:41:38;;;;;;;12.40;4.78;;;;;;;23.33;24.82;101611.75;5049992;28;20029;-29
2022/04/20 11:44:22;;;;;;;12.13;4.13;;;;;;;23.13;26.09;101605.88;5049680;28;20115;-31
2022/04/20 11:46:53;;;;;;;13.65;5.07;;;;;;;23.85;24.59;101602.41;5051161;28;20182;-30
2022/04/20 11:49:19;;;;;;;18.08;5.35;;;;;;;23.46;24.77;101599.59;5051590;28;20522;-30
2022/04/20 11:51:57;;;;;;;11.52;5.35;;;;;;;22.27;26.40;101606.63;5049930;28;20057;-29
2022/04/20 11:54:24;;;;;;;11.57;5.45;;;;;;;22.58;26.40;101588.91;5051387;28;20415;-30
2022/04/20 11:56:49;;;;;;;12.15;5.28;;;;;;;22.98;26.92;101593.53;5050957;28;20037;-30